createdAt,value
2022-11-20T00:01:52.220Z,-2.80
2022-11-20T00:06:55.505Z,-2.90
2022-11-20T00:11:58.045Z,-2.80
2022-11-20T00:17:00.533Z,-2.70
2022-11-20T00:22:03.033Z,-1.80
2022-11-20T00:27:05.480Z,-2.70
2022-11-20T00:32:08.259Z,-2.10
2022-11-20T00:37:10.917Z,-2.70
2022-11-20T00:42:13.383Z,-2.70
2022-11-20T00:47:16.002Z,-2.50
2022-11-20T00:52:18.753Z,-2.50
2022-11-20T00:57:21.412Z,-2.40
2022-11-20T01:02:23.964Z,-2.30
2022-11-20T01:07:26.664Z,-2.30
2022-11-20T01:12:29.212Z,-2.10
2022-11-20T01:17:32.843Z,-2.20
2022-11-20T01:22:35.345Z,-2.30
2022-11-20T01:27:37.900Z,-2.30
2022-11-20T01:32:40.431Z,-2.20
2022-11-20T01:37:43.078Z,-2.40
2022-11-20T01:43:17.789Z,-2.30
2022-11-20T01:48:23.860Z,-2.40
2022-11-20T01:53:32.448Z,-2.40
2022-11-20T01:58:38.316Z,-2.40
2022-11-20T02:03:41.234Z,-2.40
2022-11-20T02:08:43.911Z,-2.20
2022-11-20T02:13:47.107Z,-2.30
2022-11-20T02:18:51.272Z,-2.20
2022-11-20T02:24:09.713Z,-2.20
2022-11-20T02:29:12.227Z,-2.20
2022-11-20T02:34:14.819Z,-2.20
2022-11-20T02:39:20.391Z,-2.20
2022-11-20T02:44:23.074Z,-2.20
2022-11-20T02:49:25.851Z,-2.20
2022-11-20T02:54:28.440Z,-2.20
2022-11-20T02:59:30.851Z,-2.10
2022-11-20T03:04:33.707Z,-2.20
2022-11-20T03:09:36.295Z,-2.20
2022-11-20T03:14:38.799Z,-2.20
2022-11-20T03:19:41.444Z,-2.20
2022-11-20T03:24:44.106Z,-2.30
2022-11-20T03:29:46.579Z,-2.10
2022-11-20T03:34:51.579Z,-2.20
2022-11-20T03:39:54.148Z,-2.20
2022-11-20T03:44:56.585Z,-2.40
2022-11-20T03:49:59.078Z,-2.70
2022-11-20T03:55:01.539Z,-2.90
2022-11-20T04:00:05.653Z,-2.10
2022-11-20T04:05:08.397Z,-3.30
2022-11-20T04:10:10.857Z,-3.60
2022-11-20T04:15:13.497Z,-3.60
2022-11-20T04:20:16.087Z,-3.90
2022-11-20T04:25:18.568Z,-4.20
2022-11-20T04:30:21.024Z,-4.40
2022-11-20T04:35:23.778Z,-2.20
2022-11-20T04:40:26.321Z,-2.20
2022-11-20T04:45:28.763Z,-4.80
2022-11-20T04:50:31.316Z,-3.90
2022-11-20T04:55:33.789Z,-4.90
2022-11-20T05:00:37.001Z,-2.50
2022-11-20T05:05:39.473Z,-5.30
2022-11-20T05:10:41.961Z,-5.40
2022-11-20T05:15:44.415Z,-2.90
2022-11-20T05:20:46.979Z,-5.40
2022-11-20T05:25:52.330Z,-5.40
2022-11-20T05:30:57.321Z,-5.40
2022-11-20T05:36:00.180Z,-5.50
2022-11-20T05:41:12.275Z,-5.70
2022-11-20T05:46:17.351Z,-5.70
2022-11-20T05:51:20.359Z,-6.30
2022-11-20T05:56:23.528Z,-5.50
2022-11-20T06:01:27.407Z,-5.50
2022-11-20T06:06:30.005Z,-2.30
2022-11-20T06:11:32.499Z,-4.90
2022-11-20T06:16:35.262Z,-4.50
2022-11-20T06:21:37.709Z,-4.40
2022-11-20T06:26:40.252Z,-4.10
2022-11-20T06:31:43.609Z,-4.00
2022-11-20T06:36:46.249Z,-3.90
2022-11-20T06:41:48.698Z,-3.50
2022-11-20T06:46:51.178Z,-3.60
2022-11-20T06:51:53.625Z,-3.60
2022-11-20T06:56:56.189Z,-3.50
2022-11-20T07:01:58.658Z,-1.90
2022-11-20T07:07:01.249Z,-3.00
2022-11-20T07:12:03.902Z,-2.20
2022-11-20T07:17:06.549Z,-2.90
2022-11-20T07:22:09.169Z,-2.90
2022-11-20T07:27:11.951Z,-2.50
2022-11-20T07:32:14.975Z,-2.80
2022-11-20T07:37:17.493Z,-2.60
2022-11-20T07:42:20.180Z,-2.70
2022-11-20T07:47:26.281Z,-2.40
2022-11-20T07:52:29.760Z,-2.20
2022-11-20T07:57:32.549Z,-1.90
2022-11-20T08:02:35.053Z,-1.60
2022-11-20T08:07:41.488Z,-1.30
